createdAt,value
2018-06-04T00:00:42.329Z,18.07
2018-06-04T00:01:51.193Z,18.07
2018-06-04T00:03:00.056Z,18.1
2018-06-04T00:04:09.197Z,18.08
2018-06-04T00:05:18.620Z,18.11
2018-06-04T00:06:27.482Z,18.08
2018-06-04T00:07:36.344Z,18.11
2018-06-04T00:08:45.207Z,18.11
2018-06-04T00:09:54.070Z,17.99
2018-06-04T00:11:03.080Z,18.08
2018-06-04T00:12:15.264Z,18.02
2018-06-04T00:13:24.127Z,18.02
2018-06-04T00:14:33.269Z,17.96
2018-06-04T00:15:42.137Z,18.05
2018-06-04T00:16:50.998Z,18.03
2018-06-04T00:17:59.863Z,17.99
2018-06-04T00:19:08.726Z,17.9
2018-06-04T00:20:17.588Z,17.97
2018-06-04T00:21:26.451Z,18.05
2018-06-04T00:22:35.312Z,18.03
2018-06-04T00:23:44.177Z,18
2018-06-04T00:24:53.034Z,18.08
2018-06-04T00:26:01.896Z,18.07
2018-06-04T00:27:10.759Z,18.1
2018-06-04T00:28:19.621Z,17.96
2018-06-04T00:29:28.769Z,18
2018-06-04T00:30:37.635Z,17.97
2018-06-04T00:31:46.496Z,17.9
2018-06-04T00:32:55.360Z,17.92
2018-06-04T00:34:04.371Z,17.87
2018-06-04T00:35:13.232Z,17.95
2018-06-04T00:36:22.093Z,17.9
2018-06-04T00:37:31.237Z,17.92
2018-06-04T00:38:40.099Z,17.93
2018-06-04T00:39:49.011Z,17.92
2018-06-04T00:40:57.881Z,17.84
2018-06-04T00:42:06.745Z,17.77
2018-06-04T00:43:15.881Z,17.79
2018-06-04T00:44:24.743Z,17.77
2018-06-04T00:45:34.155Z,17.87
2018-06-04T00:46:43.017Z,17.92
2018-06-04T00:47:52.154Z,17.84
2018-06-04T00:49:01.018Z,17.84
2018-06-04T00:50:09.880Z,17.84
2018-06-04T00:51:18.744Z,17.89
2018-06-04T00:52:27.607Z,17.79
2018-06-04T00:53:36.470Z,17.82
2018-06-04T00:54:45.331Z,17.79
2018-06-04T00:55:54.471Z,17.89
2018-06-04T00:57:03.760Z,17.92
2018-06-04T00:58:12.902Z,17.77
2018-06-04T00:59:22.046Z,17.79
2018-06-04T01:00:30.912Z,17.87
2018-06-04T01:01:39.774Z,17.9
2018-06-04T01:02:48.687Z,17.87
2018-06-04T01:03:57.551Z,17.75
2018-06-04T01:05:06.976Z,17.75
2018-06-04T01:06:16.124Z,17.66
2018-06-04T01:07:25.260Z,17.74
2018-06-04T01:08:34.220Z,17.75
2018-06-04T01:09:43.082Z,17.63
2018-06-04T01:10:51.943Z,17.7
2018-06-04T01:12:00.805Z,17.63
2018-06-04T01:13:09.670Z,17.56
2018-06-04T01:14:18.532Z,17.59
2018-06-04T01:15:27.395Z,17.51
2018-06-04T01:16:36.257Z,17.58
2018-06-04T01:17:45.116Z,17.58
2018-06-04T01:18:53.978Z,17.49
2018-06-04T01:20:02.989Z,17.58
2018-06-04T01:21:11.848Z,17.48
2018-06-04T01:22:20.711Z,17.51
2018-06-04T01:23:29.572Z,17.44
2018-06-04T01:24:38.436Z,17.41
2018-06-04T01:25:47.749Z,17.44
2018-06-04T01:26:56.611Z,17.43
2018-06-04T01:28:05.477Z,17.41
2018-06-04T01:29:14.341Z,17.41
2018-06-04T01:30:23.202Z,17.31
2018-06-04T01:31:32.412Z,17.36
2018-06-04T01:32:41.274Z,17.37
2018-06-04T01:33:50.139Z,17.36
2018-06-04T01:34:59.002Z,17.38
2018-06-04T01:36:08.139Z,17.3
2018-06-04T01:37:17.008Z,17.25
2018-06-04T01:38:25.869Z,17.25
2018-06-04T01:39:34.733Z,17.23
2018-06-04T01:40:43.870Z,17.23
2018-06-04T01:41:52.733Z,17.19
2018-06-04T01:43:01.924Z,17.19
2018-06-04T01:44:10.785Z,17.19
2018-06-04T01:45:19.648Z,17.26
2018-06-04T01:46:28.512Z,17.36
2018-06-04T01:47:37.652Z,17.38
2018-06-04T01:48:46.623Z,17.33
2018-06-04T01:49:55.476Z,17.33
2018-06-04T01:51:04.339Z,17.33
2018-06-04T01:52:13.205Z,17.23
2018-06-04T01:53:22.067Z,17.25
2018-06-04T01:54:31.078Z,17.36
2018-06-04T01:55:39.942Z,17.38
2018-06-04T01:56:48.804Z,17.41
2018-06-04T01:57:57.669Z,17.34
2018-06-04T01:59:06.803Z,17.46
2018-06-04T02:00:16.024Z,17.37
2018-06-04T02:01:24.878Z,17.41
2018-06-04T02:02:33.739Z,17.4
2018-06-04T02:03:42.601Z,17.36
2018-06-04T02:04:51.740Z,17.36
2018-06-04T02:06:00.603Z,17.37
2018-06-04T02:07:09.469Z,17.37
2018-06-04T02:08:18.608Z,17.43
2018-06-04T02:09:27.470Z,17.51
2018-06-04T02:10:36.335Z,17.44
2018-06-04T02:11:45.197Z,17.41
2018-06-04T02:12:54.057Z,17.34
2018-06-04T02:14:03.193Z,17.4
2018-06-04T02:15:12.055Z,17.31
2018-06-04T02:16:20.968Z,17.38
2018-06-04T02:17:30.558Z,17.41
2018-06-04T02:18:39.694Z,17.44
2018-06-04T02:19:48.560Z,17.43
2018-06-04T02:20:57.425Z,17.33
2018-06-04T02:22:06.285Z,17.4
2018-06-04T02:23:15.249Z,17.37
2018-06-04T02:24:24.384Z,17.37
2018-06-04T02:25:33.250Z,17.36
2018-06-04T02:26:42.110Z,17.4
2018-06-04T02:27:50.971Z,17.37
2018-06-04T02:28:59.940Z,17.41
2018-06-04T02:30:09.092Z,17.36
2018-06-04T02:31:18.231Z,17.33
2018-06-04T02:32:27.096Z,17.56
2018-06-04T02:33:35.959Z,17.48
2018-06-04T02:34:45.277Z,17.48
2018-06-04T02:35:54.420Z,17.41
2018-06-04T02:37:03.844Z,17.36
2018-06-04T02:38:13.272Z,17.41
2018-06-04T02:39:22.413Z,17.44
2018-06-04T02:40:31.886Z,17.33
2018-06-04T02:41:41.027Z,17.28
2018-06-04T02:42:50.168Z,17.34
2018-06-04T02:43:59.585Z,17.34
2018-06-04T02:45:08.734Z,17.34
2018-06-04T02:46:18.232Z,17.4
2018-06-04T02:47:27.370Z,17.31
2018-06-04T02:48:36.506Z,17.31
2018-06-04T02:49:45.659Z,17.28
2018-06-04T02:50:54.517Z,17.33
2018-06-04T02:52:03.806Z,17.33
2018-06-04T02:53:13.232Z,17.31
2018-06-04T02:54:22.380Z,17.33
2018-06-04T02:55:31.246Z,17.31
2018-06-04T02:56:40.110Z,17.34
2018-06-04T02:57:49.728Z,17.28
2018-06-04T02:58:58.591Z,17.3
2018-06-04T03:00:07.733Z,17.28
2018-06-04T03:01:16.608Z,17.26
2018-06-04T03:02:25.459Z,17.33
2018-06-04T03:03:34.967Z,17.33
2018-06-04T03:04:44.105Z,17.34
2018-06-04T03:05:52.975Z,17.37
2018-06-04T03:07:01.839Z,17.33
2018-06-04T03:08:11.257Z,17.31
2018-06-04T03:09:20.476Z,17.31
2018-06-04T03:10:29.340Z,17.28
2018-06-04T03:11:38.757Z,17.31
2018-06-04T03:12:47.622Z,17.34
2018-06-04T03:13:56.493Z,17.46
2018-06-04T03:15:06.343Z,17.38
2018-06-04T03:16:15.774Z,17.43
2018-06-04T03:17:24.635Z,17.36
2018-06-04T03:18:33.780Z,17.41
2018-06-04T03:19:42.649Z,17.43
2018-06-04T03:20:51.939Z,17.44
2018-06-04T03:22:01.082Z,17.41
2018-06-04T03:23:10.225Z,17.41
2018-06-04T03:24:19.419Z,17.52
2018-06-04T03:25:28.284Z,17.55
2018-06-04T03:26:37.297Z,17.49
2018-06-04T03:27:46.161Z,17.44
2018-06-04T03:28:55.024Z,17.54
2018-06-04T03:30:04.167Z,17.43
2018-06-04T03:31:13.045Z,17.52
2018-06-04T03:32:22.540Z,17.62
2018-06-04T03:33:31.403Z,17.56
2018-06-04T03:34:40.596Z,17.64
2018-06-04T03:35:49.457Z,17.66
2018-06-04T03:36:58.321Z,17.56
2018-06-04T03:38:07.343Z,17.58
2018-06-04T03:39:16.189Z,17.87
2018-06-04T03:40:25.051Z,17.92
2018-06-04T03:41:34.188Z,17.72
2018-06-04T03:42:43.049Z,17.82
2018-06-04T03:43:52.237Z,17.74
2018-06-04T03:45:01.390Z,17.59
2018-06-04T03:46:10.536Z,17.62
2018-06-04T03:47:19.399Z,17.64
2018-06-04T03:48:28.261Z,17.66
2018-06-04T03:49:37.748Z,17.68
2018-06-04T03:50:46.888Z,17.66
2018-06-04T03:51:55.753Z,17.74
2018-06-04T03:53:04.903Z,17.66
2018-06-04T03:54:13.764Z,17.66
2018-06-04T03:55:22.627Z,17.68
2018-06-04T03:56:31.495Z,17.7
2018-06-04T03:57:40.362Z,17.66
2018-06-04T03:58:49.500Z,17.63
2018-06-04T03:59:58.366Z,17.7
2018-06-04T04:01:07.379Z,17.66
2018-06-04T04:02:16.515Z,17.7
2018-06-04T04:03:25.678Z,17.68
2018-06-04T04:04:34.522Z,17.74
2018-06-04T04:05:43.386Z,17.75
2018-06-04T04:06:52.303Z,17.71
2018-06-04T04:08:01.164Z,17.79
2018-06-04T04:09:10.304Z,17.74
2018-06-04T04:10:19.167Z,17.78
2018-06-04T04:11:28.028Z,17.74
2018-06-04T04:12:37.222Z,17.87
2018-06-04T04:13:46.085Z,17.75
2018-06-04T04:14:54.951Z,17.74
2018-06-04T04:16:03.811Z,17.81
2018-06-04T04:17:12.679Z,17.86
2018-06-04T04:18:21.693Z,17.89
2018-06-04T04:19:30.557Z,17.87
2018-06-04T04:20:39.418Z,17.87
2018-06-04T04:21:48.285Z,17.77
2018-06-04T04:22:57.148Z,17.87
2018-06-04T04:24:06.168Z,17.84
2018-06-04T04:25:15.031Z,17.9
2018-06-04T04:26:23.896Z,17.86
2018-06-04T04:27:33.041Z,17.89
2018-06-04T04:28:41.901Z,17.99
2018-06-04T04:29:51.113Z,17.95
2018-06-04T04:30:59.977Z,17.99
2018-06-04T04:32:08.839Z,18
2018-06-04T04:33:17.703Z,18.05
2018-06-04T04:34:26.843Z,18
2018-06-04T04:35:35.957Z,17.97
2018-06-04T04:36:45.097Z,17.95
2018-06-04T04:37:54.309Z,17.99
2018-06-04T04:39:03.450Z,17.99
2018-06-04T04:40:12.314Z,17.97
2018-06-04T04:41:21.376Z,17.93
2018-06-04T04:42:30.238Z,17.87
2018-06-04T04:43:39.102Z,17.92
2018-06-04T04:44:47.963Z,17.93
2018-06-04T04:45:56.829Z,17.99
2018-06-04T04:47:05.689Z,17.99
2018-06-04T04:48:14.553Z,18.05
2018-06-04T04:49:23.415Z,18.32
2018-06-04T04:50:32.276Z,18.23
2018-06-04T04:51:41.143Z,18.25
2018-06-04T04:52:50.007Z,18.18
2018-06-04T04:53:58.869Z,18.17
2018-06-04T04:55:07.730Z,18.26
2018-06-04T04:56:16.876Z,18.17
2018-06-04T04:57:25.740Z,18.17
2018-06-04T04:58:34.602Z,18.21
2018-06-04T04:59:43.596Z,18.18
2018-06-04T05:00:52.333Z,18.23
2018-06-04T05:02:01.197Z,18.2
2018-06-04T05:03:10.217Z,18.32
2018-06-04T05:04:19.078Z,18.33
2018-06-04T05:05:27.940Z,18.14
2018-06-04T05:06:36.803Z,18.21
2018-06-04T05:07:46.223Z,18.26
2018-06-04T05:08:55.364Z,18.23
2018-06-04T05:10:04.226Z,18.21
2018-06-04T05:11:13.090Z,18.17
2018-06-04T05:12:22.528Z,18.23
2018-06-04T05:13:31.649Z,18.25
2018-06-04T05:14:40.517Z,18.26
2018-06-04T05:15:49.379Z,18.23
2018-06-04T05:16:58.239Z,18.17
2018-06-04T05:18:07.101Z,18.2
2018-06-04T05:19:16.248Z,18.08
2018-06-04T05:20:25.109Z,18.2
2018-06-04T05:21:33.976Z,18.21
2018-06-04T05:22:43.113Z,18.25
2018-06-04T05:23:52.093Z,18.21
2018-06-04T05:25:00.957Z,18.17
2018-06-04T05:26:09.819Z,18.33
2018-06-04T05:27:18.684Z,18.29
2018-06-04T05:28:27.824Z,18.33
2018-06-04T05:29:36.786Z,18.33
2018-06-04T05:30:45.647Z,18.36
2018-06-04T05:31:55.531Z,18.3
2018-06-04T05:33:04.689Z,18.27
2018-06-04T05:34:14.004Z,18.3
2018-06-04T05:35:22.866Z,18.32
2018-06-04T05:36:31.728Z,18.18
2018-06-04T05:37:40.594Z,18.18
2018-06-04T05:38:49.731Z,18.29
2018-06-04T05:39:58.593Z,18.32
2018-06-04T05:41:07.609Z,18.3
2018-06-04T05:42:16.786Z,18.32
2018-06-04T05:43:25.949Z,18.29
2018-06-04T05:44:34.817Z,18.3
2018-06-04T05:45:43.958Z,18.21
2018-06-04T05:46:52.974Z,18.17
2018-06-04T05:48:01.839Z,18.26
2018-06-04T05:49:10.980Z,18.21
2018-06-04T05:50:20.131Z,18.2
2018-06-04T05:51:29.273Z,18.14
2018-06-04T05:52:38.185Z,18.07
2018-06-04T05:53:47.328Z,18.03
2018-06-04T05:54:56.189Z,18.08
2018-06-04T05:56:05.052Z,18.08
2018-06-04T05:57:13.918Z,18
2018-06-04T05:58:22.984Z,17.97
2018-06-04T05:59:31.845Z,18.05
2018-06-04T06:00:40.708Z,18.02
2018-06-04T06:01:49.908Z,18.14
2018-06-04T06:02:58.756Z,18.25
2018-06-04T06:04:08.089Z,18.18
2018-06-04T06:05:17.227Z,18.26
2018-06-04T06:06:26.094Z,18.15
2018-06-04T06:07:34.962Z,18.3
2018-06-04T06:08:44.102Z,18.26
2018-06-04T06:09:53.555Z,18.18
2018-06-04T06:11:02.499Z,18.12
2018-06-04T06:12:11.364Z,18.48
2018-06-04T06:13:20.230Z,18.52
2018-06-04T06:14:29.133Z,18.32
2018-06-04T06:15:38.348Z,18.32
2018-06-04T06:16:47.235Z,18.2
2018-06-04T06:17:56.080Z,18.11
2018-06-04T06:19:04.952Z,18.32
2018-06-04T06:20:13.816Z,18.18
2018-06-04T06:21:22.778Z,18.23
2018-06-04T06:22:31.641Z,18.32
2018-06-04T06:23:40.502Z,18.26
2018-06-04T06:24:49.367Z,18.29
2018-06-04T06:25:58.793Z,18.29
2018-06-04T06:27:07.755Z,18.48
2018-06-04T06:28:16.621Z,18.52
2018-06-04T06:29:25.484Z,18.44
2018-06-04T06:30:34.625Z,18.42
2018-06-04T06:31:43.776Z,18.47
2018-06-04T06:32:52.669Z,18.35
2018-06-04T06:34:01.533Z,18.37
2018-06-04T06:35:10.395Z,18.32
2018-06-04T06:36:19.272Z,18.23
2018-06-04T06:37:28.136Z,18.2
2018-06-04T06:38:36.997Z,18.3
2018-06-04T06:39:45.865Z,18.29
2018-06-04T06:40:54.726Z,18.32
2018-06-04T06:42:03.588Z,18.39
2018-06-04T06:43:13.693Z,18.44
2018-06-04T06:44:23.260Z,18.36
2018-06-04T06:45:32.141Z,18.33
2018-06-04T06:46:40.993Z,18.26
2018-06-04T06:47:50.142Z,18.29
2018-06-04T06:48:59.002Z,18.21
2018-06-04T06:50:08.031Z,18.26
2018-06-04T06:51:16.831Z,18.27
2018-06-04T06:52:25.695Z,18.12
2018-06-04T06:53:34.559Z,18.18
2018-06-04T06:54:43.423Z,18.14
2018-06-04T06:55:52.486Z,18.3
2018-06-04T06:57:01.349Z,18.21
2018-06-04T06:58:10.499Z,18.41
2018-06-04T06:59:19.363Z,18.3
2018-06-04T07:00:28.501Z,18.47
2018-06-04T07:01:37.795Z,18.35
2018-06-04T07:02:46.950Z,18.3
2018-06-04T07:03:55.812Z,18.32
2018-06-04T07:05:04.674Z,18.29
2018-06-04T07:06:13.536Z,18.3
2018-06-04T07:07:22.446Z,18.29
2018-06-04T07:08:31.310Z,18.39
2018-06-04T07:09:40.173Z,18.51
2018-06-04T07:10:49.032Z,18.36
2018-06-04T07:11:57.896Z,18.33
2018-06-04T07:13:06.913Z,18.3
2018-06-04T07:14:16.124Z,18.32
2018-06-04T07:15:25.655Z,18.21
2018-06-04T07:16:34.519Z,18.18
2018-06-04T07:17:43.662Z,18.23
2018-06-04T07:18:52.877Z,18.26
2018-06-04T07:20:01.740Z,18.21
2018-06-04T07:21:10.604Z,18.41
2018-06-04T07:22:19.470Z,18.55
2018-06-04T07:23:28.331Z,18.37
2018-06-04T07:24:37.556Z,18.44
2018-06-04T07:25:46.412Z,18.3
2018-06-04T07:26:55.275Z,18.33
2018-06-04T07:28:04.141Z,18.39
2018-06-04T07:29:13.001Z,18.44
2018-06-04T07:30:21.968Z,18.33
2018-06-04T07:31:31.110Z,18.26
2018-06-04T07:32:39.974Z,18.26
2018-06-04T07:33:48.837Z,18.23
2018-06-04T07:34:57.823Z,18.27
2018-06-04T07:36:06.950Z,18.33
2018-06-04T07:37:15.813Z,18.32
2018-06-04T07:38:24.674Z,18.41
2018-06-04T07:39:33.539Z,18.47
2018-06-04T07:40:42.678Z,18.42
2018-06-04T07:41:51.565Z,18.44
2018-06-04T07:43:00.713Z,18.47
2018-06-04T07:44:09.583Z,18.52
2018-06-04T07:45:18.444Z,18.45
2018-06-04T07:46:27.308Z,18.57
2018-06-04T07:47:36.273Z,18.65
2018-06-04T07:48:45.423Z,18.72
2018-06-04T07:49:54.325Z,18.65
2018-06-04T07:51:03.483Z,18.82
2018-06-04T07:52:12.349Z,18.65
2018-06-04T07:53:21.638Z,18.65
2018-06-04T07:54:30.503Z,18.84
2018-06-04T07:55:39.418Z,18.67
2018-06-04T07:56:48.284Z,18.6
2018-06-04T07:57:57.433Z,18.58
2018-06-04T07:59:06.546Z,18.72
2018-06-04T08:00:15.695Z,18.75
2018-06-04T08:01:24.559Z,18.78
2018-06-04T08:02:33.704Z,18.8
2018-06-04T08:03:42.573Z,18.65
2018-06-04T08:04:51.485Z,18.82
2018-06-04T08:06:00.346Z,18.88
2018-06-04T08:07:09.215Z,18.85
2018-06-04T08:08:18.080Z,18.94
2018-06-04T08:09:27.507Z,18.7
2018-06-04T08:10:36.421Z,18.8
2018-06-04T08:11:45.288Z,18.8
2018-06-04T08:12:54.145Z,18.88
2018-06-04T08:14:03.294Z,18.7
2018-06-04T08:15:12.436Z,18.62
2018-06-04T08:16:21.631Z,18.58
2018-06-04T08:17:30.496Z,18.6
2018-06-04T08:18:39.362Z,18.65
2018-06-04T08:19:48.227Z,18.67
2018-06-04T08:20:57.091Z,18.78
2018-06-04T08:22:07.041Z,18.81
2018-06-04T08:23:15.904Z,18.8
2018-06-04T08:24:24.823Z,18.88
2018-06-04T08:25:33.639Z,18.98
2018-06-04T08:26:42.505Z,18.92
2018-06-04T08:27:51.372Z,18.94
2018-06-04T08:29:00.521Z,18.88
2018-06-04T08:30:09.380Z,18.98
2018-06-04T08:31:18.245Z,19.07
2018-06-04T08:32:27.111Z,19.13
2018-06-04T08:33:36.250Z,19
2018-06-04T08:34:45.116Z,19.08
2018-06-04T08:35:53.988Z,19.06
2018-06-04T08:37:03.123Z,19.1
2018-06-04T08:38:11.984Z,19.07
2018-06-04T08:39:21.099Z,19.08
2018-06-04T08:40:29.961Z,19.06
2018-06-04T08:41:39.105Z,19.14
2018-06-04T08:42:48.251Z,19.08
2018-06-04T08:43:57.118Z,19.21
2018-06-04T08:45:06.337Z,19.16
2018-06-04T08:46:15.479Z,19.1
2018-06-04T08:47:24.342Z,19.02
2018-06-04T08:48:33.208Z,18.99
2018-06-04T08:49:42.347Z,19.07
2018-06-04T08:50:51.845Z,19.11
2018-06-04T08:52:00.709Z,19.21
2018-06-04T08:53:09.572Z,19.21
2018-06-04T08:54:18.438Z,19.1
2018-06-04T08:55:27.585Z,19.18
2018-06-04T08:56:36.875Z,19.23
2018-06-04T08:57:45.748Z,19.28
2018-06-04T08:58:54.889Z,19.19
2018-06-04T09:00:04.316Z,19.21
2018-06-04T09:01:13.178Z,19.23
2018-06-04T09:02:22.194Z,19.21
2018-06-04T09:03:31.335Z,19.4
2018-06-04T09:04:40.476Z,19.33
2018-06-04T09:05:49.341Z,19.31
2018-06-04T09:06:58.204Z,19.18
2018-06-04T09:08:07.071Z,19.37
2018-06-04T09:09:15.940Z,19.36
2018-06-04T09:10:25.084Z,19.32
2018-06-04T09:11:33.950Z,19.33
2018-06-04T09:12:43.091Z,19.41
2018-06-04T09:13:52.242Z,19.44
2018-06-04T09:15:01.391Z,19.48
2018-06-04T09:16:10.253Z,19.54
2018-06-04T09:17:19.118Z,19.51
2018-06-04T09:18:27.985Z,19.5
2018-06-04T09:19:37.199Z,19.68
2018-06-04T09:20:46.063Z,19.69
2018-06-04T09:21:54.929Z,19.66
2018-06-04T09:23:04.114Z,19.73
2018-06-04T09:24:12.979Z,19.78
2018-06-04T09:25:21.944Z,19.71
2018-06-04T09:26:30.807Z,19.69
2018-06-04T09:27:39.671Z,19.68
2018-06-04T09:28:48.538Z,19.56
2018-06-04T09:29:57.405Z,19.62
2018-06-04T09:31:06.608Z,19.56
2018-06-04T09:32:16.103Z,19.56
2018-06-04T09:33:25.178Z,19.46
2018-06-04T09:34:34.042Z,19.41
2018-06-04T09:35:42.909Z,19.39
2018-06-04T09:36:51.823Z,19.43
2018-06-04T09:38:00.689Z,19.55
2018-06-04T09:39:09.828Z,19.39
2018-06-04T09:40:18.696Z,19.41
2018-06-04T09:41:27.563Z,19.59
2018-06-04T09:42:36.477Z,19.58
2018-06-04T09:43:45.344Z,19.59
2018-06-04T09:44:54.504Z,19.48
2018-06-04T09:46:03.645Z,19.59
2018-06-04T09:47:12.511Z,19.5
2018-06-04T09:48:21.375Z,19.48
2018-06-04T09:49:30.240Z,19.55
2018-06-04T09:50:39.101Z,19.5
2018-06-04T09:51:47.967Z,19.55
2018-06-04T09:52:56.837Z,19.63
2018-06-04T09:54:06.117Z,19.69
2018-06-04T09:55:15.605Z,19.73
2018-06-04T09:56:24.470Z,19.74
2018-06-04T09:57:33.333Z,19.69
2018-06-04T09:58:42.198Z,19.73
2018-06-04T09:59:51.213Z,19.69
2018-06-04T10:01:00.028Z,19.66
2018-06-04T10:02:08.897Z,19.77
2018-06-04T10:03:17.759Z,19.83
2018-06-04T10:04:26.627Z,19.77
2018-06-04T10:05:35.491Z,19.95
2018-06-04T10:06:44.636Z,19.94
2018-06-04T10:07:53.500Z,20.01
2018-06-04T10:09:02.644Z,20.06
2018-06-04T10:10:11.790Z,20.08
2018-06-04T10:11:21.063Z,20.06
2018-06-04T10:12:29.930Z,20.14
2018-06-04T10:13:38.795Z,20.02
2018-06-04T10:14:47.659Z,20.13
2018-06-04T10:15:56.534Z,20.06
2018-06-04T10:17:05.444Z,19.96
2018-06-04T10:18:14.317Z,19.98
2018-06-04T10:19:23.467Z,20.05
2018-06-04T10:20:32.335Z,20.16
2018-06-04T10:21:41.202Z,20.18
2018-06-04T10:22:50.402Z,20.24
2018-06-04T10:23:59.546Z,20.32
2018-06-04T10:25:08.695Z,20.36
2018-06-04T10:26:17.565Z,20.32
2018-06-04T10:27:26.429Z,20.35
2018-06-04T10:28:35.394Z,20.41
2018-06-04T10:29:44.536Z,20.38
2018-06-04T10:30:53.400Z,20.36
2018-06-04T10:32:02.268Z,20.31
2018-06-04T10:33:11.135Z,20.28
2018-06-04T10:34:20.056Z,20.29
2018-06-04T10:35:29.199Z,20.32
2018-06-04T10:36:38.062Z,20.33
2018-06-04T10:37:46.927Z,20.32
2018-06-04T10:38:55.794Z,20.33
2018-06-04T10:40:04.660Z,20.21
2018-06-04T10:41:13.802Z,20.28
2018-06-04T10:42:22.671Z,20.35
2018-06-04T10:43:31.537Z,20.29
2018-06-04T10:44:40.397Z,20.33
2018-06-04T10:45:49.713Z,20.36
2018-06-04T10:46:58.579Z,20.31
2018-06-04T10:48:07.443Z,20.32
2018-06-04T10:49:16.314Z,20.41
2018-06-04T10:50:25.180Z,20.31
2018-06-04T10:51:34.402Z,20.29
2018-06-04T10:52:43.271Z,20.36
2018-06-04T10:53:52.699Z,20.5
2018-06-04T10:55:01.893Z,20.5
2018-06-04T10:56:10.770Z,20.42
2018-06-04T10:57:19.884Z,20.51
2018-06-04T10:58:28.749Z,20.41
2018-06-04T10:59:37.667Z,20.47
2018-06-04T11:00:46.527Z,20.54
2018-06-04T11:01:55.400Z,20.32
2018-06-04T11:03:04.774Z,20.31
2018-06-04T11:04:13.639Z,20.43
2018-06-04T11:05:22.504Z,20.48
2018-06-04T11:06:31.368Z,20.51
2018-06-04T11:07:40.233Z,20.5
2018-06-04T11:08:49.146Z,20.5
2018-06-04T11:09:58.103Z,20.59
2018-06-04T11:11:06.972Z,20.69
2018-06-04T11:12:15.840Z,20.72
2018-06-04T11:13:24.980Z,20.72
2018-06-04T11:14:33.899Z,20.66
2018-06-04T11:15:42.764Z,20.72
2018-06-04T11:16:51.660Z,20.74
2018-06-04T11:18:00.571Z,20.76
2018-06-04T11:19:09.997Z,20.74
2018-06-04T11:20:19.310Z,20.77
2018-06-04T11:21:28.176Z,20.69
2018-06-04T11:22:37.044Z,20.67
2018-06-04T11:23:45.915Z,20.59
2018-06-04T11:24:54.780Z,20.69
2018-06-04T11:26:04.087Z,20.59
2018-06-04T11:27:12.891Z,20.52
2018-06-04T11:28:22.040Z,20.47
2018-06-04T11:29:30.934Z,20.52
2018-06-04T11:30:40.364Z,20.72
2018-06-04T11:31:49.657Z,20.73
2018-06-04T11:32:58.548Z,20.67
2018-06-04T11:34:07.725Z,20.58
2018-06-04T11:35:16.591Z,20.52
2018-06-04T11:36:25.457Z,20.47
2018-06-04T11:37:34.493Z,20.52
2018-06-04T11:38:43.587Z,20.52
2018-06-04T11:39:53.015Z,20.48
2018-06-04T11:41:01.883Z,20.54
2018-06-04T11:42:10.753Z,20.61
2018-06-04T11:43:19.679Z,20.61
2018-06-04T11:44:28.573Z,20.73
2018-06-04T11:45:37.893Z,20.8
2018-06-04T11:46:46.761Z,20.76
2018-06-04T11:47:55.628Z,20.77
2018-06-04T11:49:04.596Z,20.7
2018-06-04T11:50:13.463Z,20.85
2018-06-04T11:51:22.329Z,20.7
2018-06-04T11:52:31.201Z,20.64
2018-06-04T11:53:40.096Z,20.72
2018-06-04T11:54:48.967Z,20.72
2018-06-04T11:55:57.828Z,20.72
2018-06-04T11:57:06.979Z,20.74
2018-06-04T11:58:15.844Z,20.73
2018-06-04T11:59:24.721Z,20.77
2018-06-04T12:00:33.589Z,20.79
2018-06-04T12:01:43.042Z,20.79
2018-06-04T12:02:51.897Z,20.79
2018-06-04T12:04:01.048Z,20.87
2018-06-04T12:05:09.995Z,20.87
2018-06-04T12:06:19.685Z,20.97
2018-06-04T12:07:29.226Z,20.95
2018-06-04T12:08:38.428Z,20.8
2018-06-04T12:09:47.294Z,20.85
2018-06-04T12:10:56.160Z,20.97
2018-06-04T12:12:05.378Z,20.94
2018-06-04T12:13:14.531Z,21.09
2018-06-04T12:14:23.528Z,21.21
2018-06-04T12:15:32.394Z,21.21
2018-06-04T12:16:41.533Z,21.32
2018-06-04T12:17:50.849Z,21.43
2018-06-04T12:18:59.721Z,21.5
2018-06-04T12:20:08.580Z,21.61
2018-06-04T12:21:17.496Z,21.59
2018-06-04T12:22:26.454Z,21.62
2018-06-04T12:23:35.380Z,21.61
2018-06-04T12:24:44.649Z,21.46
2018-06-04T12:25:53.907Z,21.67
2018-06-04T12:27:02.841Z,21.65
2018-06-04T12:28:11.745Z,21.46
2018-06-04T12:29:21.208Z,21.54
2018-06-04T12:30:30.276Z,21.47
2018-06-04T12:31:39.141Z,21.46
2018-06-04T12:32:48.006Z,21.28
2018-06-04T12:33:56.916Z,21.42
2018-06-04T12:35:06.311Z,21.34
2018-06-04T12:36:15.181Z,21.43
2018-06-04T12:37:24.062Z,21.47
2018-06-04T12:38:32.932Z,21.59
2018-06-04T12:39:42.075Z,21.56
2018-06-04T12:40:51.094Z,21.44
2018-06-04T12:41:59.962Z,21.46
2018-06-04T12:43:09.386Z,21.38
2018-06-04T12:44:18.253Z,21.28
2018-06-04T12:45:27.121Z,21.35
2018-06-04T12:46:35.988Z,21.4
2018-06-04T12:47:44.856Z,21.42
2018-06-04T12:48:53.724Z,21.4
2018-06-04T12:50:02.693Z,21.42
2018-06-04T12:51:11.557Z,21.43
2018-06-04T12:52:20.475Z,21.35
2018-06-04T12:53:29.345Z,21.47
2018-06-04T12:54:38.213Z,21.46
2018-06-04T12:55:47.079Z,21.43
2018-06-04T12:56:55.950Z,21.37
2018-06-04T12:58:05.063Z,21.37
2018-06-04T12:59:13.932Z,21.31
2018-06-04T13:00:23.346Z,21.27
2018-06-04T13:01:32.209Z,21.35
2018-06-04T13:02:41.076Z,21.38
2018-06-04T13:03:50.221Z,21.44
2018-06-04T13:04:59.457Z,21.42
2018-06-04T13:06:08.238Z,21.44
2018-06-04T13:07:17.096Z,21.43
2018-06-04T13:08:25.961Z,21.49
2018-06-04T13:09:34.874Z,21.49
2018-06-04T13:10:43.739Z,21.49
2018-06-04T13:11:52.606Z,21.47
2018-06-04T13:13:01.470Z,21.62
2018-06-04T13:14:10.337Z,21.49
2018-06-04T13:15:19.528Z,21.61
2018-06-04T13:16:28.396Z,21.46
2018-06-04T13:17:37.265Z,21.59
2018-06-04T13:18:46.404Z,21.44
2018-06-04T13:19:55.281Z,21.52
2018-06-04T13:21:04.772Z,21.59
2018-06-04T13:22:13.639Z,21.61
2018-06-04T13:23:22.527Z,21.61
2018-06-04T13:24:31.670Z,21.46
2018-06-04T13:25:40.533Z,21.35
2018-06-04T13:26:49.449Z,21.34
2018-06-04T13:27:58.316Z,21.43
2018-06-04T13:29:07.460Z,21.42
2018-06-04T13:30:16.600Z,21.44
2018-06-04T13:31:25.741Z,21.4
2018-06-04T13:32:34.612Z,21.46
2018-06-04T13:33:43.820Z,21.37
2018-06-04T13:34:52.687Z,21.42
2018-06-04T13:36:01.555Z,21.44
2018-06-04T13:37:10.787Z,21.46
2018-06-04T13:38:19.802Z,21.58
2018-06-04T13:39:29.026Z,21.5
2018-06-04T13:40:37.884Z,21.43
2018-06-04T13:41:46.752Z,21.43
2018-06-04T13:42:55.616Z,21.43
2018-06-04T13:44:04.483Z,21.35
2018-06-04T13:45:13.400Z,21.25
2018-06-04T13:46:22.266Z,21.29
2018-06-04T13:47:31.695Z,21.22
2018-06-04T13:48:40.559Z,21.22
2018-06-04T13:49:49.576Z,21.29
2018-06-04T13:50:58.441Z,21.17
2018-06-04T13:52:07.587Z,21.25
2018-06-04T13:53:16.455Z,21.29
2018-06-04T13:54:25.321Z,21.37
2018-06-04T13:55:34.239Z,21.38
2018-06-04T13:56:43.103Z,21.42
2018-06-04T13:57:52.078Z,21.32
2018-06-04T13:59:01.054Z,21.4
2018-06-04T14:00:09.919Z,21.35
2018-06-04T14:01:18.837Z,21.44
2018-06-04T14:02:27.975Z,21.43
2018-06-04T14:03:36.839Z,21.42
2018-06-04T14:04:45.707Z,21.42
2018-06-04T14:05:54.572Z,21.29
2018-06-04T14:07:03.716Z,21.32
2018-06-04T14:08:12.584Z,21.42
2018-06-04T14:09:21.726Z,21.43
2018-06-04T14:10:30.596Z,21.5
2018-06-04T14:11:39.950Z,21.44
2018-06-04T14:12:48.816Z,21.43
2018-06-04T14:13:57.680Z,21.52
2018-06-04T14:15:06.545Z,21.68
2018-06-04T14:16:15.410Z,21.64
2018-06-04T14:17:24.275Z,21.71
2018-06-04T14:18:33.416Z,21.77
2018-06-04T14:19:42.282Z,21.64
2018-06-04T14:20:51.427Z,21.83
2018-06-04T14:22:00.492Z,21.8
2018-06-04T14:23:09.637Z,21.82
2018-06-04T14:24:18.561Z,21.77
2018-06-04T14:25:27.429Z,21.79
2018-06-04T14:26:37.309Z,21.82
2018-06-04T14:27:46.815Z,21.77
2018-06-04T14:28:56.617Z,21.8
2018-06-04T14:30:05.762Z,21.86
2018-06-04T14:31:14.629Z,21.84
2018-06-04T14:32:23.862Z,21.84
2018-06-04T14:33:33.016Z,21.79
2018-06-04T14:34:41.881Z,21.74
2018-06-04T14:35:51.048Z,21.75
2018-06-04T14:37:00.206Z,21.71
2018-06-04T14:38:09.227Z,21.65
2018-06-04T14:39:18.653Z,21.62
2018-06-04T14:40:27.518Z,21.49
2018-06-04T14:41:36.510Z,21.61
2018-06-04T14:42:45.384Z,21.54
2018-06-04T14:43:54.302Z,21.53
2018-06-04T14:45:03.256Z,21.43
2018-06-04T14:46:12.447Z,21.31
2018-06-04T14:47:21.316Z,21.29
2018-06-04T14:48:30.182Z,21.22
2018-06-04T14:49:39.104Z,21.21
2018-06-04T14:50:48.798Z,21.32
2018-06-04T14:51:57.966Z,21.25